Melbourne, FL

9:21 AM EDT on April 25, 2015 (GMT -0400)
Timber Ridge | | Change Station
CLOSE
Current Station
Personal Weather Station
Location: West Melbourne, FL
Elevation: 33 ft
Nearby Weather Stations

Elev 33 ft 28.07 °N, 80.65 °W | Updated 44 seconds ago

Partly Cloudy
Partly Cloudy
79.4 °F
Feels Like 82 °F
N
3.0
Wind Variable Wind from South
Gusts 11.0 mph

Today
High -- | Low -- °F
--% Chance of Precip.
Yesterday
High -- | Low -- °F
Precip. -- in
6:47 AM 7:53 PM
Waxing Crescent, 46% visible
Pressure 29.94 in
Visibility 10.0 miles
Clouds Few 2000 ft
Heat Index 82 °F
Dew Point 71 °F
Humidity 75%
Rainfall 0.00 in
Snow Depth Not available.
UV 3 out of 12
Pollen 8.40 out of 12
Air Quality Not available.
Flu Activity Local Activity
METAR KMLB 251253Z 16009KT 10SM FEW020 26/22 A2994 RMK AO2 SLP136 T02610217

More Conditions Fewer Conditions

Pressure 29.94 in
Visibility 10.0 miles
Clouds Few 2000 ft
Heat Index 82 °F
Dew Point 71 °F
Humidity 75%
Rainfall 0.00 in
Snow Depth Not available.
UV 3 out of 12
Pollen 8.40 out of 12
Air Quality Not available.
Flu Activity Local Activity
METAR KMLB 251253Z 16009KT 10SM FEW020 26/22 A2994 RMK AO2 SLP136 T02610217

More Conditions Fewer Conditions

Nowcast | as of 8:35 am EDT on April 25, 2015

sunny skies and warm temperatures... With plenty of morning sunshine and southwest winds... temperatures will climb into the upper 80s to lower 90s this afternoon. The southwest winds will increase low level moisture and bring a chance of isolated showers and a few lightning storms... mainly after 300 PM. A few strong storms will be possible today...especially near the East Coast...with gusty winds in excess of 40 mph...frequent lightning and torrential rainfall possible. Additional details...including graphics are available online at: http://www.Srh.NOAA.Gov/mlb/blog.Php

×

10-Day Weather Forecast

Almanac

Astronomy

Apr. 25, 2015 Rise Set
Actual Time
Civil Twilight
Nautical Twilight
Astronomical Twilight
Moon
Length of Visible Light
Length of Day
Tomorrow will be .
, % of the Moon is Illuminated

Today's Extremes

State Highs State Lows

Community

WunderPhotos

Upload Photos

1,816,663 photos uploaded!

WunderBlogs® & News

Nearby

Air Quality

  Air Quality AQ Index Pollutant
Not available.

Snow Depth

Station Depth Elevation

Earthquake Activity

City Distance Mag. Time & Date
Minimum magnitude displayed is 2.5.

Coastal Water Temperatures

Place Temperature

Stations

Nearby Weather Stations

Station Location Temp. Windchill Dew Point Humidity Wind Precip. Elev Updated Type